Time;durP1;ratioP1;P1;durP2;ratioP2;P2;SDS_P1;SDS_P2;PMS_P1;PMS_P2;Temp;Humidity;BMP_temperature;BMP_pressure;BME280_temperature;BME280_humidity;BME280_pressure;Samples;Min_cycle;Max_cycle;Signal;HPM_P1;HPM_P2
2024/02/13 00:10:29;;;;;;;4.53;1.00;;;8.60;99.90;;;;;;5101980;28;20529;-84
2024/02/13 00:12:59;;;;;;;2.28;0.88;;;8.70;99.90;;;;;;5097552;28;20038;-84
2024/02/13 00:15:28;;;;;;;1.70;0.65;;;8.70;99.90;;;;;;5102758;28;20415;-84
2024/02/13 00:17:56;;;;;;;3.15;1.08;;;8.70;99.90;;;;;;5078916;28;20079;-84
2024/02/13 00:20:25;;;;;;;2.17;0.90;;;8.60;99.90;;;;;;5081619;28;20044;-86
2024/02/13 00:22:54;;;;;;;2.65;1.10;;;8.60;99.90;;;;;;5108160;28;20039;-87
2024/02/13 00:25:23;;;;;;;2.53;1.00;;;8.60;99.90;;;;;;5090644;28;20048;-85
2024/02/13 00:27:53;;;;;;;1.67;0.73;;;8.60;99.90;;;;;;5084455;28;20052;-87
2024/02/13 00:30:23;;;;;;;1.85;0.82;;;8.60;99.90;;;;;;5078584;28;20104;-87
2024/02/13 00:32:52;;;;;;;3.10;1.05;;;8.50;99.90;;;;;;5082747;28;20044;-88
2024/02/13 00:35:21;;;;;;;3.45;1.27;;;8.60;99.90;;;;;;5094468;28;20101;-87
2024/02/13 00:37:50;;;;;;;1.90;0.88;;;8.50;99.90;;;;;;5107918;28;20035;-87
2024/02/13 00:40:18;;;;;;;3.17;1.13;;;8.50;99.90;;;;;;5107437;28;20052;-86
2024/02/13 00:42:51;;;;;;;3.63;1.00;;;8.50;99.90;;;;;;5089366;28;20047;-86
2024/02/13 00:45:20;;;;;;;2.60;1.20;;;8.50;99.90;;;;;;5108651;28;20055;-87
2024/02/13 00:47:49;;;;;;;1.67;0.70;;;8.40;99.90;;;;;;5109558;28;20052;-87
2024/02/13 00:50:18;;;;;;;2.45;1.02;;;8.40;99.90;;;;;;5112746;28;20036;-88
2024/02/13 00:52:49;;;;;;;1.90;0.85;;;8.40;99.90;;;;;;5107452;28;20036;-87
2024/02/13 00:55:17;;;;;;;2.85;1.50;;;8.40;99.90;;;;;;5093327;28;20066;-87
2024/02/13 00:57:46;;;;;;;2.80;1.10;;;8.40;99.90;;;;;;5109204;28;20044;-84
2024/02/13 01:00:15;;;;;;;3.97;1.00;;;8.30;99.90;;;;;;5088505;28;20059;-87
2024/02/13 01:02:45;;;;;;;2.80;1.23;;;8.30;99.90;;;;;;5108203;28;20036;-86
2024/02/13 01:05:13;;;;;;;2.70;1.13;;;8.30;99.90;;;;;;5104807;28;20529;-87
2024/02/13 01:07:43;;;;;;;2.65;1.30;;;8.30;99.90;;;;;;5109409;28;20482;-87
2024/02/13 01:10:15;;;;;;;2.10;1.17;;;8.30;99.90;;;;;;5104377;28;20462;-85
2024/02/13 01:12:44;;;;;;;4.55;1.00;;;8.30;99.90;;;;;;5104722;28;20511;-85
2024/02/13 01:15:14;;;;;;;3.05;1.38;;;8.20;99.90;;;;;;5097441;28;20047;-84
2024/02/13 01:17:44;;;;;;;3.22;1.35;;;8.30;99.90;;;;;;5081082;28;20121;-83
2024/02/13 01:20:15;;;;;;;3.00;1.17;;;8.30;99.90;;;;;;5085534;28;20043;-86
2024/02/13 01:22:43;;;;;;;1.70;1.00;;;8.30;99.90;;;;;;5093037;28;20120;-86
2024/02/13 01:25:14;;;;;;;3.90;1.40;;;8.20;99.90;;;;;;5108929;28;20050;-87
2024/02/13 01:27:42;;;;;;;2.45;1.20;;;8.20;99.90;;;;;;5091077;28;20143;-85
2024/02/13 01:30:13;;;;;;;3.33;1.20;;;8.20;99.90;;;;;;5109097;28;20047;-86
2024/02/13 01:32:43;;;;;;;4.20;1.33;;;8.20;99.90;;;;;;5088703;28;20484;-87
2024/02/13 01:35:16;;;;;;;3.40;1.40;;;8.20;99.90;;;;;;5090528;28;20408;-87
2024/02/13 01:37:46;;;;;;;3.05;1.20;;;8.20;99.90;;;;;;5107417;27;20036;-85
2024/02/13 01:40:17;;;;;;;2.45;1.05;;;8.10;99.90;;;;;;5107894;28;20047;-83
2024/02/13 01:42:48;;;;;;;3.45;1.70;;;8.10;99.90;;;;;;5103201;28;20059;-85
2024/02/13 01:45:17;;;;;;;5.13;1.67;;;8.10;99.90;;;;;;5109951;27;20062;-85
2024/02/13 01:47:48;;;;;;;2.80;1.40;;;8.10;99.90;;;;;;5091543;28;20048;-87
2024/02/13 01:50:20;;;;;;;3.08;1.42;;;8.10;99.90;;;;;;5088562;28;20039;-86
2024/02/13 01:52:53;;;;;;;2.58;1.25;;;8.10;99.90;;;;;;5122729;27;20036;-88
2024/02/13 01:55:25;;;;;;;2.38;1.23;;;8.10;99.90;;;;;;5107584;28;20047;-84
2024/02/13 01:58:01;;;;;;;2.78;1.58;;;8.10;99.90;;;;;;5110527;27;20047;-84
2024/02/13 02:00:33;;;;;;;4.43;1.88;;;8.10;99.90;;;;;;5092234;28;20068;-85
2024/02/13 02:03:04;;;;;;;3.17;1.50;;;8.10;99.90;;;;;;5105426;28;20301;-85
2024/02/13 02:05:33;;;;;;;4.38;1.58;;;8.10;99.90;;;;;;5107205;28;20043;-87
2024/02/13 02:08:02;;;;;;;4.53;2.35;;;8.10;99.90;;;;;;5104081;28;20513;-83
2024/02/13 02:10:30;;;;;;;3.58;1.90;;;8.10;99.90;;;;;;5110611;27;20068;-86
2024/02/13 02:12:59;;;;;;;3.92;1.70;;;8.10;99.90;;;;;;5108037;28;20039;-85
2024/02/13 02:15:28;;;;;;;3.70;1.67;;;8.10;99.90;;;;;;5108075;28;20119;-87
2024/02/13 02:17:57;;;;;;;5.00;1.92;;;8.00;99.90;;;;;;5124832;27;20070;-85
2024/02/13 02:20:27;;;;;;;3.92;1.83;;;8.00;99.90;;;;;;5103390;28;20100;-83
2024/02/13 02:22:55;;;;;;;6.45;1.70;;;8.00;99.90;;;;;;5091181;28;20048;-86
2024/02/13 02:25:25;;;;;;;4.18;1.80;;;8.00;99.90;;;;;;5104010;28;20453;-83
2024/02/13 02:27:53;;;;;;;4.28;2.22;;;8.00;99.90;;;;;;5087133;28;20039;-85
2024/02/13 02:30:23;;;;;;;3.97;1.92;;;8.00;99.90;;;;;;5105893;28;20073;-85
2024/02/13 02:32:51;;;;;;;3.70;1.90;;;8.00;99.90;;;;;;5090071;28;20552;-85
2024/02/13 02:35:20;;;;;;;2.30;1.35;;;8.00;99.90;;;;;;5092594;28;20048;-85
2024/02/13 02:37:50;;;;;;;4.53;1.85;;;8.00;99.90;;;;;;5106206;28;20051;-85
2024/02/13 02:40:19;;;;;;;3.85;1.63;;;8.00;99.90;;;;;;5092836;28;20047;-84
2024/02/13 02:42:51;;;;;;;4.82;1.85;;;8.00;99.90;;;;;;5105260;27;20122;-85
2024/02/13 02:45:20;;;;;;;6.10;2.53;;;8.00;99.90;;;;;;5110325;27;20132;-85
2024/02/13 02:47:49;;;;;;;4.10;1.70;;;8.00;99.90;;;;;;5091418;28;20079;-83
2024/02/13 02:50:18;;;;;;;4.15;1.80;;;8.00;99.90;;;;;;5105644;28;20044;-85
2024/02/13 02:52:47;;;;;;;4.15;1.60;;;7.90;99.90;;;;;;5091600;28;20977;-84
2024/02/13 02:55:17;;;;;;;3.40;1.90;;;7.90;99.90;;;;;;5112031;27;20448;-84
2024/02/13 02:57:45;;;;;;;3.47;1.88;;;7.90;99.90;;;;;;5093086;28;20112;-85
2024/02/13 03:00:20;;;;;;;3.22;1.80;;;7.90;99.90;;;;;;5092533;28;20131;-86
2024/02/13 03:02:48;;;;;;;4.35;1.90;;;7.90;99.90;;;;;;5088843;28;20040;-85
2024/02/13 03:05:17;;;;;;;4.05;2.10;;;7.90;99.90;;;;;;5090865;28;20065;-84
2024/02/13 03:07:46;;;;;;;5.28;2.20;;;7.80;99.90;;;;;;5090308;28;20090;-86
2024/02/13 03:10:15;;;;;;;5.80;2.13;;;7.80;99.90;;;;;;5105670;28;20053;-87
2024/02/13 03:12:44;;;;;;;5.53;2.70;;;7.80;99.90;;;;;;5088122;28;20064;-85
2024/02/13 03:15:13;;;;;;;5.53;2.75;;;7.80;99.90;;;;;;5107748;28;20150;-86
2024/02/13 03:17:48;;;;;;;7.32;2.33;;;7.80;99.90;;;;;;5110207;27;20088;-85
2024/02/13 03:20:16;;;;;;;9.15;3.08;;;7.80;99.90;;;;;;5103793;28;20136;-85
2024/02/13 03:22:45;;;;;;;6.60;2.83;;;7.70;99.90;;;;;;5108987;28;20047;-85
2024/02/13 03:25:13;;;;;;;7.82;2.90;;;7.70;99.90;;;;;;5108004;28;20081;-85
2024/02/13 03:27:42;;;;;;;6.38;3.55;;;7.70;99.90;;;;;;5107762;28;20075;-85
2024/02/13 03:30:11;;;;;;;10.57;4.43;;;7.70;99.90;;;;;;5108515;28;20126;-85
2024/02/13 03:32:39;;;;;;;7.18;3.55;;;7.70;99.90;;;;;;5088682;28;20040;-86
2024/02/13 03:35:10;;;;;;;10.70;3.75;;;7.70;99.90;;;;;;5091494;28;20503;-85
2024/02/13 03:37:39;;;;;;;9.75;4.38;;;7.60;99.90;;;;;;5106749;27;20039;-85
2024/02/13 03:40:08;;;;;;;8.68;3.75;;;7.60;99.90;;;;;;5095193;27;20043;-84
2024/02/13 03:42:37;;;;;;;8.13;3.80;;;7.60;99.90;;;;;;5093469;28;20044;-86
2024/02/13 03:45:06;;;;;;;8.43;3.78;;;7.60;99.90;;;;;;5088313;28;20101;-86
2024/02/13 03:47:35;;;;;;;6.13;3.13;;;7.60;99.90;;;;;;5089253;28;20061;-85
2024/02/13 03:50:05;;;;;;;8.35;2.70;;;7.50;99.90;;;;;;5108541;27;20031;-82
2024/02/13 03:52:35;;;;;;;5.28;2.67;;;7.50;99.90;;;;;;5090268;28;20069;-84
2024/02/13 03:55:05;;;;;;;4.57;2.38;;;7.50;99.90;;;;;;5088117;28;20047;-83
2024/02/13 03:57:35;;;;;;;3.33;2.20;;;7.50;99.90;;;;;;5107032;28;20108;-84
2024/02/13 04:00:05;;;;;;;5.60;3.13;;;7.50;99.90;;;;;;5108124;28;20048;-84
2024/02/13 04:02:33;;;;;;;3.80;1.90;;;7.50;99.90;;;;;;5092422;28;20058;-83
2024/02/13 04:05:02;;;;;;;4.32;2.03;;;7.50;99.90;;;;;;5108509;28;20085;-82
2024/02/13 04:07:31;;;;;;;4.07;2.28;;;7.40;99.90;;;;;;5106662;28;20518;-83
2024/02/13 04:10:01;;;;;;;4.53;2.85;;;7.40;99.90;;;;;;5086474;28;20471;-84
2024/02/13 04:12:29;;;;;;;3.97;2.42;;;7.40;99.90;;;;;;5092406;28;20071;-82
2024/02/13 04:14:58;;;;;;;5.30;2.63;;;7.40;99.90;;;;;;5126569;27;20507;-83
2024/02/13 04:17:27;;;;;;;5.53;3.17;;;7.40;99.90;;;;;;5109045;28;20058;-84
2024/02/13 04:19:56;;;;;;;4.68;2.30;;;7.40;99.90;;;;;;5104879;28;20040;-83
2024/02/13 04:22:25;;;;;;;5.28;2.60;;;7.40;99.90;;;;;;5107333;28;20050;-83
2024/02/13 04:24:53;;;;;;;4.22;2.83;;;7.40;99.90;;;;;;5085789;28;20044;-83
2024/02/13 04:27:24;;;;;;;7.60;2.70;;;7.30;99.90;;;;;;5104005;28;20075;-80
2024/02/13 04:29:53;;;;;;;3.95;2.35;;;7.30;99.90;;;;;;5095714;28;20047;-81
2024/02/13 04:32:21;;;;;;;4.80;2.50;;;7.30;99.90;;;;;;5119747;28;20040;-82
2024/02/13 04:34:50;;;;;;;4.32;2.33;;;7.30;99.90;;;;;;5110974;28;20740;-81
2024/02/13 04:37:19;;;;;;;4.43;2.22;;;7.20;99.90;;;;;;5112566;28;20389;-82
2024/02/13 04:39:47;;;;;;;4.70;2.65;;;7.20;99.90;;;;;;5110572;28;20044;-82
2024/02/13 04:42:16;;;;;;;5.78;2.72;;;7.20;99.90;;;;;;5095179;28;20093;-82
2024/02/13 04:44:45;;;;;;;5.15;2.67;;;7.20;99.90;;;;;;5096445;28;20039;-82
2024/02/13 04:47:14;;;;;;;4.90;2.70;;;7.20;99.90;;;;;;5108432;28;20422;-83
2024/02/13 04:49:42;;;;;;;5.03;2.65;;;7.20;99.90;;;;;;5113329;28;20054;-82
2024/02/13 04:52:11;;;;;;;5.55;3.03;;;7.20;99.90;;;;;;5109189;28;20048;-83
2024/02/13 04:54:39;;;;;;;5.22;2.60;;;7.20;99.90;;;;;;5112756;28;20048;-83
2024/02/13 04:57:08;;;;;;;6.30;3.05;;;7.20;99.90;;;;;;5114134;28;20491;-83
2024/02/13 04:59:47;;;;;;;4.82;2.55;;;7.20;99.90;;;;;;5114533;28;20048;-82
2024/02/13 05:02:21;;;;;;;5.68;2.83;;;7.20;99.90;;;;;;5113405;27;20123;-82
2024/02/13 07:15:52;;;;;;;9.82;5.18;;;7.50;99.90;;;;;;5875842;23;20056;-79
2024/02/13 07:18:21;;;;;;;6.60;4.07;;;7.60;99.90;;;;;;4901176;29;20053;-79
2024/02/13 07:20:50;;;;;;;9.60;3.90;;;7.70;99.90;;;;;;4903628;29;20048;-78
2024/02/13 07:23:19;;;;;;;6.10;3.97;;;7.80;99.90;;;;;;4933121;29;20034;-78
2024/02/13 07:25:48;;;;;;;6.38;3.45;;;7.90;99.90;;;;;;4917649;29;20405;-79
2024/02/13 07:28:18;;;;;;;8.48;4.20;;;8.00;99.90;;;;;;4914283;29;20048;-80
2024/02/13 07:30:49;;;;;;;6.53;3.53;;;8.00;99.90;;;;;;4921519;29;20060;-79
2024/02/13 07:36:48;;;;;;;6.78;3.95;;;8.10;99.90;;;;;;4886178;29;20135;-79
2024/02/13 07:39:17;;;;;;;7.32;3.97;;;8.20;99.90;;;;;;4881186;29;20056;-80
2024/02/13 07:41:46;;;;;;;7.72;3.47;;;8.20;99.90;;;;;;4863938;29;20535;-81
2024/02/13 07:44:14;;;;;;;6.30;3.47;;;8.30;99.90;;;;;;4854887;29;20087;-80
2024/02/13 07:46:43;;;;;;;7.80;5.05;;;8.30;99.90;;;;;;4873671;29;20122;-77
2024/02/13 07:49:13;;;;;;;6.70;3.53;;;8.40;99.90;;;;;;4885071;29;20064;-79
2024/02/13 07:51:42;;;;;;;6.50;3.70;;;8.40;99.90;;;;;;4881883;29;20045;-81
2024/02/13 07:54:14;;;;;;;5.65;3.50;;;8.50;99.90;;;;;;4856080;29;20049;-81
2024/02/13 07:57:02;;;;;;;8.02;4.13;;;8.60;99.90;;;;;;4819306;29;20054;-84
2024/02/13 07:59:31;;;;;;;6.90;4.18;;;8.60;99.90;;;;;;4821769;29;20062;-84
2024/02/13 08:02:00;;;;;;;7.78;3.67;;;8.60;99.90;;;;;;4820166;29;20050;-83
2024/02/13 08:04:32;;;;;;;8.23;4.22;;;8.70;99.90;;;;;;4816096;29;20141;-80
2024/02/13 08:07:05;;;;;;;6.75;3.72;;;8.80;99.90;;;;;;4820782;29;20055;-78
2024/02/13 08:09:39;;;;;;;8.00;3.60;;;8.80;99.90;;;;;;4847676;29;20054;-84
2024/02/13 08:12:09;;;;;;;6.95;3.78;;;8.90;99.90;;;;;;4840195;29;20145;-84
2024/02/13 08:14:40;;;;;;;8.20;4.10;;;8.90;99.90;;;;;;4873416;29;20044;-82
2024/02/13 08:17:10;;;;;;;7.45;4.13;;;8.90;99.90;;;;;;4908071;29;20056;-80
2024/02/13 08:19:42;;;;;;;6.68;3.70;;;9.00;99.90;;;;;;4918357;29;20394;-82
2024/02/13 08:22:12;;;;;;;8.32;3.20;;;9.00;99.90;;;;;;4908393;29;20653;-83
2024/02/13 08:24:42;;;;;;;7.68;3.30;;;9.10;99.90;;;;;;4910666;29;20041;-83
2024/02/13 08:27:14;;;;;;;6.93;3.65;;;9.20;99.90;;;;;;4912845;29;20104;-80
2024/02/13 08:29:43;;;;;;;;;;;9.20;99.90;;;;;;4918510;29;20595;-83
2024/02/13 08:32:12;;;;;;;5.60;3.50;;;9.30;99.90;;;;;;4929072;29;19927;-84
2024/02/13 08:34:41;;;;;;;7.13;3.40;;;9.30;99.90;;;;;;4917731;29;20058;-85
2024/02/13 08:37:12;;;;;;;7.22;3.80;;;9.40;99.90;;;;;;4915414;29;20142;-84
2024/02/13 08:39:42;;;;;;;7.00;3.40;;;9.40;99.90;;;;;;4930450;29;20412;-84
2024/02/13 08:42:11;;;;;;;4.88;3.80;;;9.40;99.90;;;;;;4914966;29;20097;-78
2024/02/13 08:44:42;;;;;;;5.60;3.67;;;9.50;99.90;;;;;;4931451;29;20043;-82
2024/02/13 08:49:54;;;;;;;5.32;3.55;;;9.40;99.90;;;;;;4919566;29;20103;-82
2024/02/13 08:52:24;;;;;;;5.30;2.85;;;9.50;99.90;;;;;;4931042;29;20058;-83
2024/02/13 08:54:57;;;;;;;5.55;3.53;;;9.50;99.90;;;;;;4936774;29;20046;-82
2024/02/13 08:57:29;;;;;;;6.68;3.92;;;9.50;99.90;;;;;;4915233;29;20052;-80
2024/02/13 09:00:02;;;;;;;5.40;2.97;;;9.60;99.90;;;;;;4929079;29;20142;-81
2024/02/13 09:02:32;;;;;;;5.07;3.47;;;9.70;99.90;;;;;;4911323;29;20531;-82
2024/02/13 09:05:02;;;;;;;6.50;3.58;;;9.70;99.90;;;;;;4909057;29;20398;-85
2024/02/13 09:07:33;;;;;;;6.85;3.60;;;9.80;99.90;;;;;;4913360;29;20048;-84
2024/02/13 09:10:11;;;;;;;5.45;2.72;;;9.90;99.90;;;;;;4931025;29;20564;-83
2024/02/13 09:12:48;;;;;;;4.65;2.55;;;9.90;99.90;;;;;;4867739;29;20386;-82
2024/02/13 09:15:20;;;;;;;5.82;3.22;;;10.00;99.90;;;;;;4907514;29;20071;-86
2024/02/13 09:17:49;;;;;;;5.30;2.78;;;10.10;99.90;;;;;;4893779;29;20060;-80
2024/02/13 09:20:21;;;;;;;4.47;2.53;;;10.10;99.90;;;;;;4915718;29;20046;-80
2024/02/13 09:22:54;;;;;;;5.68;2.03;;;10.10;99.90;;;;;;4914127;29;20048;-87
2024/02/13 09:25:27;;;;;;;5.68;2.13;;;10.10;99.90;;;;;;4912188;29;20048;-82
2024/02/13 09:28:04;;;;;;;5.90;2.53;;;10.20;99.90;;;;;;4907632;29;20063;-82
2024/02/13 09:30:34;;;;;;;7.45;2.72;;;10.20;99.90;;;;;;4911009;29;20047;-80
2024/02/13 09:33:04;;;;;;;5.28;2.78;;;10.30;99.90;;;;;;4880585;29;20292;-87
2024/02/13 09:35:33;;;;;;;5.05;2.17;;;10.40;99.90;;;;;;4926282;29;20052;-86
2024/02/13 09:38:11;;;;;;;4.90;2.60;;;10.50;99.90;;;;;;4917267;29;20078;-84
2024/02/13 09:40:41;;;;;;;7.07;2.90;;;10.50;99.90;;;;;;4914606;29;20532;-87
2024/02/13 09:43:11;;;;;;;8.48;3.42;;;10.50;99.90;;;;;;4930134;29;20111;-86
2024/02/13 09:45:41;;;;;;;7.18;3.38;;;10.60;99.90;;;;;;4911720;29;20047;-86
2024/02/13 09:48:19;;;;;;;7.82;3.88;;;10.70;99.90;;;;;;4910376;29;20469;-81
2024/02/13 09:50:50;;;;;;;9.13;5.70;;;10.60;99.90;;;;;;4912550;29;20050;-85
2024/02/13 09:53:24;;;;;;;6.45;4.68;;;10.70;99.90;;;;;;4924538;29;20111;-80
2024/02/13 09:55:58;;;;;;;16.02;6.78;;;10.60;99.90;;;;;;4912481;29;20044;-88
2024/02/13 09:58:29;;;;;;;28.95;14.32;;;10.50;99.90;;;;;;4913893;29;20130;-79
2024/02/13 10:01:00;;;;;;;6.75;3.78;;;10.60;99.90;;;;;;4908935;29;20433;-84
2024/02/13 10:03:30;;;;;;;5.47;3.90;;;10.50;99.90;;;;;;4914286;29;20512;-81
2024/02/13 10:06:00;;;;;;;6.18;3.75;;;10.50;99.90;;;;;;4906427;29;20513;-86
2024/02/13 10:08:31;;;;;;;6.40;4.43;;;10.60;99.90;;;;;;4906960;29;20064;-84
2024/02/13 10:11:08;;;;;;;7.50;4.28;;;10.70;99.90;;;;;;4905728;29;20073;-88
2024/02/13 10:13:40;;;;;;;7.03;4.32;;;10.80;99.90;;;;;;4920979;29;20056;-85
2024/02/13 10:16:19;;;;;;;8.18;4.53;;;10.70;99.90;;;;;;4896587;29;20142;-76
2024/02/13 10:18:51;;;;;;;13.48;4.60;;;10.80;99.90;;;;;;4912530;29;20047;-81
2024/02/13 10:21:24;;;;;;;13.32;6.65;;;10.70;99.90;;;;;;4916103;29;20059;-85
2024/02/13 10:24:06;;;;;;;16.88;8.77;;;10.70;99.90;;;;;;4926334;29;20115;-86
2024/02/13 10:26:39;;;;;;;6.80;4.53;;;10.80;99.90;;;;;;4908794;29;20044;-81
2024/02/13 10:29:08;;;;;;;6.15;3.85;;;10.90;99.90;;;;;;4910582;29;20044;-86
2024/02/13 10:31:37;;;;;;;8.38;4.88;;;10.90;99.90;;;;;;4913922;29;20465;-86
2024/02/13 10:34:11;;;;;;;12.60;3.70;;;11.00;99.90;;;;;;4910247;29;20103;-85
2024/02/13 10:36:44;;;;;;;8.20;4.03;;;10.90;99.90;;;;;;4928444;29;20044;-86
2024/02/13 10:39:14;;;;;;;6.72;3.83;;;11.00;99.90;;;;;;4914791;29;20055;-87
2024/02/13 10:41:48;;;;;;;8.00;3.38;;;11.00;99.90;;;;;;4914065;29;20151;-86
2024/02/13 10:44:23;;;;;;;5.38;3.25;;;11.00;99.90;;;;;;4911707;29;20056;-80
2024/02/13 10:47:00;;;;;;;5.50;2.28;;;11.00;99.90;;;;;;4930307;29;20453;-82
2024/02/13 10:49:39;;;;;;;4.88;2.40;;;11.10;99.90;;;;;;4907314;29;20146;-84
2024/02/13 10:52:15;;;;;;;4.40;2.15;;;11.20;99.90;;;;;;4911978;29;20048;-83
2024/02/13 10:54:47;;;;;;;4.97;2.10;;;11.30;99.90;;;;;;4929365;29;20050;-83
2024/02/13 10:57:17;;;;;;;5.38;3.83;;;11.40;99.90;;;;;;4921994;29;20078;-87
2024/02/13 10:59:48;;;;;;;5.18;2.53;;;11.30;99.20;;;;;;4911577;29;20052;-86
2024/02/13 11:02:18;;;;;;;5.85;2.42;;;11.40;99.30;;;;;;4912376;29;20055;-83
2024/02/13 11:04:49;;;;;;;4.15;2.30;;;11.60;99.60;;;;;;4909458;29;20048;-80
2024/02/13 11:07:20;;;;;;;3.92;2.40;;;11.60;98.30;;;;;;4928196;29;20044;-84
2024/02/13 11:09:49;;;;;;;5.55;2.17;;;11.40;98.00;;;;;;4910696;29;20603;-82
2024/02/13 11:12:19;;;;;;;4.25;2.45;;;11.60;98.40;;;;;;4908152;29;20118;-82
2024/02/13 11:14:48;;;;;;;5.00;2.42;;;11.70;98.00;;;;;;4908942;29;20044;-83
2024/02/13 11:17:18;;;;;;;5.63;2.63;;;11.50;97.80;;;;;;4889834;29;20491;-75
2024/02/13 11:19:56;;;;;;;3.63;2.60;;;11.50;97.30;;;;;;4910290;29;20690;-85
2024/02/13 11:22:36;;;;;;;4.75;1.45;;;11.50;96.60;;;;;;4924213;29;20138;-86
2024/02/13 11:25:12;;;;;;;3.20;1.60;;;11.60;95.90;;;;;;4907124;29;20039;-84
2024/02/13 11:27:44;;;;;;;3.35;1.27;;;11.60;95.00;;;;;;4911067;29;20569;-85
2024/02/13 11:30:23;;;;;;;5.47;2.05;;;11.40;95.00;;;;;;4909797;29;20458;-83
2024/02/13 11:32:58;;;;;;;4.80;1.15;;;11.20;94.70;;;;;;4910982;29;20052;-82
2024/02/13 11:35:33;;;;;;;4.47;1.52;;;11.30;94.70;;;;;;4910815;29;20525;-84
2024/02/13 11:38:12;;;;;;;2.30;1.17;;;11.60;94.60;;;;;;4908360;29;20231;-79
2024/02/13 11:40:44;;;;;;;4.63;1.45;;;11.50;93.90;;;;;;4908733;29;20075;-84
2024/02/13 11:43:21;;;;;;;2.88;1.13;;;11.20;94.50;;;;;;4906479;29;20052;-83
2024/02/13 11:45:50;;;;;;;2.15;1.45;;;11.40;93.70;;;;;;4911769;29;20150;-80
2024/02/13 11:48:25;;;;;;;2.70;1.48;;;11.60;93.80;;;;;;4909705;29;20059;-82
2024/02/13 11:51:02;;;;;;;3.83;1.60;;;11.50;94.10;;;;;;4923808;29;20532;-85
2024/02/13 11:53:32;;;;;;;3.63;1.70;;;11.60;94.40;;;;;;4915418;29;20066;-85
2024/02/13 11:56:01;;;;;;;3.28;1.52;;;11.80;93.70;;;;;;4911237;29;20462;-85
2024/02/13 11:58:34;;;;;;;3.17;2.08;;;11.80;93.90;;;;;;4908195;29;20060;-84
2024/02/13 12:01:05;;;;;;;3.97;1.25;;;11.90;93.10;;;;;;4911929;29;20103;-83
2024/02/13 12:03:35;;;;;;;3.45;1.60;;;11.90;93.20;;;;;;4923945;29;20398;-80
2024/02/13 12:06:06;;;;;;;2.97;1.58;;;11.80;92.90;;;;;;4908598;29;20052;-84
2024/02/13 12:08:36;;;;;;;2.83;1.40;;;11.80;93.40;;;;;;4903185;29;20052;-87
2024/02/13 12:11:05;;;;;;;3.17;1.30;;;11.80;92.80;;;;;;4920224;29;20043;-84
2024/02/13 12:13:36;;;;;;;2.40;1.10;;;11.90;93.00;;;;;;4899820;29;20612;-80
2024/02/13 12:16:07;;;;;;;4.40;1.58;;;11.90;92.80;;;;;;4887691;29;20159;-82
2024/02/13 12:18:39;;;;;;;2.17;1.23;;;11.80;93.00;;;;;;4887199;29;20055;-84
2024/02/13 12:21:08;;;;;;;3.45;1.60;;;11.90;93.40;;;;;;4882527;29;20055;-85
2024/02/13 12:23:38;;;;;;;3.97;2.78;;;11.70;93.40;;;;;;4891683;29;20059;-82
2024/02/13 12:26:08;;;;;;;4.32;2.33;;;11.70;94.20;;;;;;4885830;29;20641;-82
2024/02/13 12:28:42;;;;;;;3.78;1.80;;;11.90;94.80;;;;;;4900953;29;20492;-83
2024/02/13 12:31:11;;;;;;;4.25;1.50;;;11.70;94.90;;;;;;4903945;29;20052;-82
2024/02/13 12:33:40;;;;;;;2.95;1.65;;;11.70;95.70;;;;;;4889025;29;20153;-80
2024/02/13 12:36:18;;;;;;;3.72;1.75;;;11.60;95.40;;;;;;4888503;29;20060;-84
2024/02/13 12:38:47;;;;;;;5.68;1.88;;;11.50;95.90;;;;;;4887138;29;20056;-85
2024/02/13 12:41:24;;;;;;;2.47;1.90;;;11.80;96.00;;;;;;4887827;29;20048;-84
2024/02/13 12:43:54;;;;;;;4.53;2.05;;;11.90;95.60;;;;;;4908100;29;20609;-81
2024/02/13 12:46:22;;;;;;;9.15;2.90;;;12.10;95.40;;;;;;4907478;29;20517;-80
2024/02/13 12:48:52;;;;;;;5.05;2.42;;;12.10;95.40;;;;;;4907396;29;20513;-82
2024/02/13 12:51:22;;;;;;;7.97;2.65;;;11.90;95.30;;;;;;4910187;29;20074;-82
2024/02/13 12:53:51;;;;;;;5.18;2.38;;;11.80;96.00;;;;;;4926731;29;20044;-85
2024/02/13 12:56:23;;;;;;;3.28;2.00;;;11.60;96.00;;;;;;4909269;29;20146;-85
2024/02/13 12:58:53;;;;;;;3.75;2.20;;;11.60;96.50;;;;;;4906347;29;20070;-81
2024/02/13 13:01:23;;;;;;;3.90;2.08;;;11.60;96.60;;;;;;4921153;29;20122;-80
2024/02/13 13:03:57;;;;;;;4.00;1.92;;;11.30;96.60;;;;;;4905431;29;20058;-83
2024/02/13 13:06:26;;;;;;;5.97;1.92;;;11.20;96.60;;;;;;4892128;29;20052;-81
2024/02/13 13:08:58;;;;;;;2.83;1.58;;;11.40;96.60;;;;;;4883646;29;20056;-84
2024/02/13 13:11:34;;;;;;;4.00;2.17;;;11.60;96.10;;;;;;4874212;29;20050;-81
2024/02/13 13:14:03;;;;;;;2.75;1.50;;;11.70;95.60;;;;;;4868613;29;20056;-84
2024/02/13 13:16:35;;;;;;;5.47;2.85;;;11.60;95.30;;;;;;4868175;29;20142;-81
2024/02/13 13:19:05;;;;;;;3.17;2.15;;;11.50;95.10;;;;;;4870675;29;20483;-82
2024/02/13 13:21:35;;;;;;;4.40;2.08;;;11.40;95.50;;;;;;4890289;29;20045;-85
2024/02/13 13:24:05;;;;;;;4.78;2.35;;;11.30;95.80;;;;;;4888493;29;20052;-85
2024/02/13 13:26:39;;;;;;;5.80;3.28;;;11.20;96.60;;;;;;4875813;29;20052;-83
2024/02/13 13:29:11;;;;;;;5.83;3.83;;;11.10;96.70;;;;;;4873190;29;20090;-79
2024/02/13 13:31:43;;;;;;;3.78;1.95;;;11.00;97.10;;;;;;4889050;29;20295;-84
2024/02/13 13:34:15;;;;;;;7.18;4.65;;;11.00;97.10;;;;;;4872848;29;20151;-83
2024/02/13 13:36:44;;;;;;;9.18;5.78;;;10.90;97.70;;;;;;4872456;29;20070;-82
2024/02/13 13:39:13;;;;;;;6.47;4.00;;;10.90;98.10;;;;;;4892172;29;20166;-81
2024/02/13 13:41:43;;;;;;;5.43;3.08;;;10.80;98.10;;;;;;4907087;29;20077;-82
2024/02/13 13:44:18;;;;;;;5.15;2.22;;;10.80;98.10;;;;;;4909514;29;20135;-78
2024/02/13 13:46:47;;;;;;;4.30;2.15;;;10.70;95.20;;;;;;4906909;29;20103;-79
2024/02/13 13:49:18;;;;;;;4.45;1.83;;;10.70;95.10;;;;;;4892756;29;20622;-86
2024/02/13 13:51:47;;;;;;;3.10;1.63;;;10.60;94.20;;;;;;4870777;29;20071;-84
2024/02/13 13:54:16;;;;;;;4.20;1.77;;;10.60;93.20;;;;;;4856822;29;20049;-81
2024/02/13 13:56:45;;;;;;;4.68;2.17;;;10.50;92.90;;;;;;4855673;29;20140;-82
2024/02/13 13:59:15;;;;;;;3.28;1.23;;;10.50;92.70;;;;;;4855946;29;20061;-80
2024/02/13 14:01:44;;;;;;;1.65;0.77;;;10.60;91.90;;;;;;4855694;29;20060;-84
2024/02/13 14:04:16;;;;;;;3.40;2.08;;;10.70;90.30;;;;;;4869451;29;20045;-79
2024/02/13 14:06:45;;;;;;;2.20;0.98;;;10.80;90.40;;;;;;4866348;29;20438;-85
2024/02/13 14:09:14;;;;;;;3.67;1.75;;;10.80;90.00;;;;;;4851959;29;20589;-86
2024/02/13 14:11:44;;;;;;;4.43;1.30;;;10.80;90.70;;;;;;4856793;29;20602;-84
2024/02/13 14:14:12;;;;;;;3.92;1.60;;;10.80;90.80;;;;;;4869306;29;20110;-85
2024/02/13 14:16:42;;;;;;;5.85;2.90;;;10.80;90.90;;;;;;4852228;29;20138;-82
2024/02/13 14:19:12;;;;;;;3.17;2.15;;;10.80;91.30;;;;;;4890760;29;20053;-86
2024/02/13 14:21:42;;;;;;;4.80;3.90;;;10.80;91.70;;;;;;4874791;29;20063;-83
2024/02/13 14:24:15;;;;;;;2.88;1.60;;;10.70;91.80;;;;;;4912209;29;20056;-86
2024/02/13 14:26:44;;;;;;;5.10;2.65;;;10.70;92.00;;;;;;4908804;29;20071;-86
2024/02/13 14:29:13;;;;;;;5.15;2.35;;;10.70;92.60;;;;;;4911344;29;20044;-84
2024/02/13 14:31:47;;;;;;;4.47;2.33;;;10.70;93.10;;;;;;4909864;29;20517;-85
2024/02/13 14:34:16;;;;;;;5.47;2.60;;;10.60;92.90;;;;;;4930798;29;20055;-78
2024/02/13 14:36:45;;;;;;;8.60;4.30;;;10.60;92.80;;;;;;4926222;29;20585;-81
2024/02/13 14:39:20;;;;;;;4.27;1.77;;;10.60;92.80;;;;;;4930640;29;20047;-82
2024/02/13 14:41:53;;;;;;;5.05;1.83;;;10.60;92.70;;;;;;4925807;29;20290;-85
2024/02/13 14:44:26;;;;;;;4.45;2.08;;;10.60;93.20;;;;;;4913513;29;20617;-78
2024/02/13 14:46:57;;;;;;;3.40;1.65;;;10.60;93.20;;;;;;4911097;29;20056;-82
2024/02/13 14:49:26;;;;;;;3.03;1.42;;;10.60;92.60;;;;;;4926660;29;20139;-82
2024/02/13 14:51:57;;;;;;;2.33;1.08;;;10.60;92.40;;;;;;4911856;29;20051;-81
2024/02/13 14:54:28;;;;;;;2.13;1.30;;;10.60;92.50;;;;;;4913267;29;20501;-78
2024/02/13 14:56:56;;;;;;;2.70;1.63;;;10.60;91.90;;;;;;4913336;29;20501;-84
2024/02/13 14:59:25;;;;;;;4.35;1.98;;;10.50;92.40;;;;;;4924568;29;20524;-81
2024/02/13 15:02:00;;;;;;;2.95;1.23;;;10.50;91.80;;;;;;4910243;29;20068;-79
2024/02/13 15:04:33;;;;;;;5.18;2.45;;;10.50;91.40;;;;;;4927904;29;20587;-83
2024/02/13 15:07:05;;;;;;;3.15;1.10;;;10.40;91.20;;;;;;4905650;29;20055;-83
2024/02/13 15:09:34;;;;;;;4.80;1.92;;;10.30;91.40;;;;;;4927880;29;20040;-82
2024/02/13 15:12:05;;;;;;;6.38;3.47;;;10.30;91.00;;;;;;4928687;29;20086;-84
2024/02/13 15:14:34;;;;;;;3.85;2.03;;;10.20;91.30;;;;;;4905665;29;20048;-84
2024/02/13 15:17:14;;;;;;;1.95;0.95;;;10.20;91.10;;;;;;4916383;29;20058;-79
2024/02/13 15:19:43;;;;;;;3.53;0.98;;;10.20;90.80;;;;;;4931385;29;20044;-81
2024/02/13 15:22:12;;;;;;;2.03;0.75;;;10.10;90.80;;;;;;4911151;29;20501;-79
2024/02/13 15:24:42;;;;;;;4.00;1.20;;;10.10;90.90;;;;;;4909290;29;20052;-81
2024/02/13 15:27:11;;;;;;;3.58;0.95;;;10.10;91.20;;;;;;4909416;29;20572;-81
2024/02/13 15:29:42;;;;;;;7.00;2.50;;;10.00;91.30;;;;;;4912013;29;20055;-80
2024/02/13 15:32:14;;;;;;;5.03;1.65;;;10.00;91.80;;;;;;4907946;29;20059;-82
2024/02/13 15:34:46;;;;;;;4.43;1.88;;;9.90;92.00;;;;;;4926125;29;20585;-84
2024/02/13 15:46:57;;;;;;;4.00;1.40;;;9.90;91.90;;;;;;4907779;29;20505;-86